createdAt,value
2022-12-11T00:03:15.360Z,9.70
2022-12-11T00:08:38.147Z,10.20
2022-12-11T00:14:00.387Z,10.70
2022-12-11T00:19:22.207Z,10.30
2022-12-11T00:24:44.437Z,11.50
2022-12-11T00:30:07.067Z,10.80
2022-12-11T00:35:28.997Z,10.40
2022-12-11T00:40:51.327Z,13.20
2022-12-11T00:46:13.814Z,12.30
2022-12-11T00:51:35.498Z,8.20
2022-12-11T00:56:57.622Z,9.60
2022-12-11T01:02:20.049Z,9.60
2022-12-11T01:07:41.878Z,11.60
2022-12-11T01:13:06.827Z,12.70
2022-12-11T01:18:28.447Z,10.20
2022-12-11T01:23:51.379Z,12.00
2022-12-11T01:29:13.208Z,11.80
2022-12-11T01:34:34.836Z,10.90
2022-12-11T01:39:57.075Z,11.50
2022-12-11T01:45:22.506Z,11.50
2022-12-11T01:50:50.359Z,10.50
2022-12-11T01:56:12.187Z,11.30
2022-12-11T02:01:39.465Z,9.70
2022-12-11T02:07:01.041Z,8.80
2022-12-11T02:12:56.814Z,11.10
2022-12-11T02:18:34.194Z,9.80
2022-12-11T02:24:21.010Z,8.60
2022-12-11T02:29:50.973Z,9.80
2022-12-11T02:35:22.909Z,9.30
2022-12-11T02:40:46.772Z,9.30
2022-12-11T02:46:09.076Z,8.40
2022-12-11T02:51:33.642Z,9.20
2022-12-11T02:57:18.251Z,9.70
2022-12-11T03:02:41.154Z,10.10
2022-12-11T03:08:03.387Z,9.10
2022-12-11T03:13:25.443Z,9.10
2022-12-11T03:18:56.904Z,9.80
2022-12-11T03:24:41.913Z,7.40
2022-12-11T03:30:08.564Z,9.70
2022-12-11T03:35:37.113Z,7.60
2022-12-11T03:41:01.250Z,8.70
2022-12-11T03:46:27.928Z,8.80
2022-12-11T03:51:51.698Z,7.50
2022-12-11T03:57:16.372Z,9.80
2022-12-11T04:02:38.099Z,9.00
2022-12-11T04:07:59.905Z,9.90
2022-12-11T04:13:21.659Z,9.50
2022-12-11T04:19:01.823Z,10.30
2022-12-11T04:24:23.983Z,9.10
2022-12-11T04:29:45.608Z,10.80
2022-12-11T04:35:09.452Z,9.80
2022-12-11T04:40:31.503Z,10.00
2022-12-11T04:46:04.908Z,7.40
2022-12-11T04:51:28.378Z,10.50
2022-12-11T04:56:50.509Z,9.30
2022-12-11T05:02:12.537Z,11.10
2022-12-11T05:07:34.467Z,9.50
2022-12-11T05:12:56.505Z,10.80
2022-12-11T05:18:18.628Z,9.90
2022-12-11T05:23:41.962Z,7.10
2022-12-11T05:29:04.291Z,8.00
2022-12-11T05:34:25.975Z,9.10
2022-12-11T05:39:48.055Z,10.40
2022-12-11T05:45:10.765Z,9.30
2022-12-11T05:50:33.314Z,8.20
2022-12-11T05:55:55.846Z,9.50
2022-12-11T06:01:21.629Z,9.20
2022-12-11T06:06:44.020Z,9.90
2022-12-11T06:12:06.156Z,8.60
2022-12-11T06:17:28.080Z,10.90
2022-12-11T06:22:50.408Z,10.30
2022-12-11T06:28:12.138Z,8.50
2022-12-11T06:33:34.370Z,7.80
2022-12-11T06:38:56.226Z,7.30
2022-12-11T06:44:18.428Z,7.30
2022-12-11T06:49:40.170Z,6.90
2022-12-11T06:55:03.332Z,7.50
2022-12-11T07:00:25.119Z,8.10
2022-12-11T07:05:47.050Z,7.30
2022-12-11T07:11:12.588Z,6.70
2022-12-11T07:16:34.167Z,8.10
2022-12-11T07:21:56.349Z,8.00
2022-12-11T07:27:18.581Z,8.50
2022-12-11T07:32:40.645Z,8.60
2022-12-11T07:38:02.941Z,8.40
2022-12-11T07:43:24.770Z,8.00
2022-12-11T07:48:47.684Z,8.80
2022-12-11T07:54:16.619Z,9.50
2022-12-11T07:59:38.284Z,8.80
2022-12-11T08:05:00.215Z,8.90
2022-12-11T08:10:23.251Z,10.40
2022-12-11T08:15:45.174Z,11.40
2022-12-11T08:21:11.906Z,10.70
2022-12-11T08:26:33.745Z,8.20
2022-12-11T08:31:55.981Z,8.30
2022-12-11T08:37:18.010Z,8.60
2022-12-11T08:42:39.841Z,9.00
2022-12-11T08:48:02.184Z,10.40
2022-12-11T08:53:24.501Z,10.90
2022-12-11T08:58:47.335Z,10.10
2022-12-11T09:04:09.264Z,9.80
2022-12-11T09:09:31.099Z,10.70
2022-12-11T09:14:52.921Z,10.50
2022-12-11T09:20:14.681Z,27.80
2022-12-11T09:25:40.493Z,15.30
2022-12-11T09:31:02.185Z,17.00
2022-12-11T09:36:24.927Z,11.70
2022-12-11T09:42:08.659Z,12.80
2022-12-11T09:47:43.133Z,11.30
2022-12-11T09:53:22.223Z,11.50
2022-12-11T09:59:19.074Z,9.00
2022-12-11T10:04:43.987Z,26.40
2022-12-11T10:10:33.641Z,19.50
2022-12-11T10:16:37.622Z,13.60
2022-12-11T10:22:00.482Z,18.10
2022-12-11T10:27:27.615Z,13.70
2022-12-11T10:33:01.572Z,12.30
2022-12-11T10:38:41.662Z,12.00
2022-12-11T10:44:21.354Z,17.40
2022-12-11T10:49:52.019Z,11.50
2022-12-11T10:55:22.975Z,13.80
2022-12-11T11:00:45.707Z,10.60
2022-12-11T11:06:17.278Z,13.20
2022-12-11T11:11:39.610Z,16.40
2022-12-11T11:17:01.763Z,17.60
2022-12-11T11:22:23.509Z,14.60
2022-12-11T11:27:55.325Z,12.50
2022-12-11T11:33:21.469Z,18.20
2022-12-11T11:39:28.657Z,13.00
2022-12-11T11:45:12.305Z,13.30
2022-12-11T11:50:35.897Z,14.80
2022-12-11T11:56:13.382Z,12.10
2022-12-11T12:01:35.468Z,15.30
2022-12-11T12:07:08.580Z,16.20
2022-12-11T12:13:02.324Z,23.60
2022-12-11T12:18:59.876Z,15.20
2022-12-11T12:24:27.826Z,16.30
2022-12-11T12:29:55.079Z,12.70
2022-12-11T12:35:34.263Z,17.60
2022-12-11T12:41:14.657Z,22.00
2022-12-11T12:46:45.417Z,25.70
2022-12-11T12:52:19.183Z,19.30
2022-12-11T12:57:45.005Z,17.50
2022-12-11T13:03:15.396Z,16.80
2022-12-11T13:08:49.864Z,17.60
2022-12-11T13:14:14.202Z,15.20
2022-12-11T13:19:42.060Z,14.10
2022-12-11T13:25:28.675Z,11.20
2022-12-11T13:31:01.942Z,13.40
2022-12-11T13:36:28.140Z,14.60
2022-12-11T13:41:56.892Z,13.50
2022-12-11T13:47:19.971Z,13.80
2022-12-11T13:52:43.001Z,13.70
2022-12-11T13:58:16.124Z,10.30
2022-12-11T14:03:47.286Z,12.70
2022-12-11T14:09:09.499Z,9.30
2022-12-11T14:14:41.104Z,11.30
2022-12-11T14:20:08.521Z,11.40
2022-12-11T14:25:31.015Z,14.30
2022-12-11T14:30:52.946Z,19.80
2022-12-11T14:36:16.439Z,14.30
2022-12-11T14:41:54.423Z,19.10
2022-12-11T14:47:23.156Z,13.60
2022-12-11T14:58:25.075Z,12.90
2022-12-11T15:03:47.548Z,12.30
2022-12-11T15:09:17.779Z,11.90
2022-12-11T15:14:50.283Z,12.00
2022-12-11T15:20:26.351Z,11.80
2022-12-11T15:25:53.313Z,11.90
2022-12-11T15:31:27.292Z,14.60
2022-12-11T15:36:49.099Z,12.70
2022-12-11T15:42:14.098Z,12.20
2022-12-11T15:47:35.681Z,12.80
2022-12-11T15:52:57.801Z,12.30
2022-12-11T15:58:22.127Z,15.70
2022-12-11T16:03:44.194Z,14.10
2022-12-11T16:09:06.079Z,12.60
2022-12-11T16:14:27.750Z,13.30
2022-12-11T16:19:49.768Z,16.10
2022-12-11T16:25:11.998Z,13.10
2022-12-11T16:30:36.074Z,16.00
2022-12-11T16:35:57.892Z,19.50
2022-12-11T16:41:19.555Z,15.20
2022-12-11T16:46:41.605Z,13.30
2022-12-11T16:52:03.588Z,15.60
2022-12-11T16:57:25.883Z,18.00
2022-12-11T17:02:48.343Z,18.90
2022-12-11T17:08:11.004Z,17.40
2022-12-11T17:13:36.120Z,18.40
2022-12-11T17:18:58.702Z,20.80
2022-12-11T17:24:20.692Z,18.00
2022-12-11T17:29:42.548Z,16.40
2022-12-11T17:35:04.793Z,14.10
2022-12-11T17:40:27.041Z,16.20
2022-12-11T17:45:52.664Z,13.70
2022-12-11T17:51:21.156Z,15.30
2022-12-11T17:56:42.631Z,19.60
2022-12-11T18:02:04.425Z,14.10
2022-12-11T18:07:26.548Z,17.80
2022-12-11T18:12:48.752Z,16.00
2022-12-11T18:18:10.778Z,13.60
2022-12-11T18:23:33.054Z,16.80
2022-12-11T18:28:55.038Z,15.50
2022-12-11T18:34:17.623Z,12.10
2022-12-11T18:39:41.784Z,11.90
2022-12-11T18:45:04.406Z,15.00
2022-12-11T18:50:26.911Z,21.20
2022-12-11T18:55:49.315Z,13.40
2022-12-11T19:01:33.182Z,15.70
2022-12-11T19:06:55.034Z,12.40
2022-12-11T19:12:17.493Z,16.20
2022-12-11T19:17:39.725Z,17.00
2022-12-11T19:23:01.434Z,16.60
2022-12-11T19:28:23.367Z,19.60
2022-12-11T19:33:46.875Z,18.10
2022-12-11T19:39:13.008Z,14.80
2022-12-11T19:44:35.159Z,13.00
2022-12-11T19:49:57.151Z,13.40
2022-12-11T19:55:21.704Z,14.80
2022-12-11T20:00:43.920Z,15.00
2022-12-11T20:06:08.848Z,17.30
2022-12-11T20:11:31.878Z,13.10
2022-12-11T20:17:13.029Z,12.60
2022-12-11T20:22:36.073Z,11.80
2022-12-11T20:27:58.148Z,13.70
2022-12-11T20:33:20.023Z,13.60
2022-12-11T20:38:42.263Z,14.70
2022-12-11T20:44:04.658Z,15.90
2022-12-11T20:49:26.443Z,18.80
2022-12-11T20:54:48.548Z,14.10
2022-12-11T21:00:11.392Z,13.50
2022-12-11T21:05:33.710Z,15.70
2022-12-11T21:10:55.501Z,11.90
2022-12-11T21:16:18.217Z,15.20
2022-12-11T21:21:40.705Z,14.30
2022-12-11T21:27:02.890Z,16.40
2022-12-11T21:32:25.172Z,13.50
2022-12-11T21:37:47.293Z,16.30
2022-12-11T21:43:09.221Z,12.90
2022-12-11T21:48:31.269Z,15.20
2022-12-11T21:53:54.386Z,10.80
2022-12-11T21:59:16.288Z,14.00
2022-12-11T22:04:38.197Z,11.70
2022-12-11T22:09:59.976Z,15.60
2022-12-11T22:15:22.005Z,13.40
2022-12-11T22:20:44.335Z,13.90
2022-12-11T22:26:11.461Z,16.60
2022-12-11T22:31:33.516Z,13.50
2022-12-11T22:36:55.343Z,12.10
2022-12-11T22:42:17.258Z,14.00
2022-12-11T22:47:39.401Z,12.10
2022-12-11T22:53:01.630Z,12.00
2022-12-11T22:58:23.470Z,14.40
2022-12-11T23:03:46.077Z,12.40
2022-12-11T23:09:08.324Z,12.60
2022-12-11T23:14:30.286Z,10.30
2022-12-11T23:19:52.292Z,10.90
2022-12-11T23:25:14.569Z,11.90
2022-12-11T23:30:36.856Z,9.90
2022-12-11T23:35:59.674Z,10.00
2022-12-11T23:41:21.652Z,8.70
2022-12-11T23:46:45.057Z,9.20
2022-12-11T23:52:07.470Z,8.70
2022-12-11T23:57:29.243Z,11.00
